Time,TemperatureF,DewpointF,PressureIn,WindDirection,WindDirectionDegrees,WindSpeedMPH,WindSpeedGustMPH,Humidity,HourlyPrecipIn,Conditions,Clouds,dailyrainin,SolarRadiationWatts/m^2,SoftwareType,DateUTC
2013-01-09 00:22:00,31.0,31.0,-100.00,South,189,2.0,4.0,99,0.00,,,0.00,1.000000,,2013-01-09 08:22:00,
2013-01-09 00:32:00,31.0,31.0,-100.00,South,189,2.0,4.0,99,0.00,,,0.00,1.000000,,2013-01-09 08:32:00,
2013-01-09 00:42:00,31.0,31.0,-100.00,South,189,2.0,4.0,99,0.00,,,0.00,1.000000,,2013-01-09 08:42:00,
2013-01-09 00:52:00,31.0,31.0,-100.00,South,189,2.0,4.0,99,0.00,,,0.00,1.000000,,2013-01-09 08:52:00,
2013-01-09 01:22:00,31.0,30.0,-100.00,NE,47,2.0,3.0,97,0.00,,,0.00,1.000000,,2013-01-09 09:22:00,
2013-01-09 01:32:00,31.0,30.0,-100.00,NE,47,2.0,3.0,97,0.00,,,0.00,1.000000,,2013-01-09 09:32:00,
2013-01-09 01:42:00,31.0,30.0,-100.00,NE,47,2.0,3.0,97,0.00,,,0.00,1.000000,,2013-01-09 09:42:00,
2013-01-09 01:53:00,31.0,30.0,-100.00,NE,47,2.0,3.0,97,0.00,,,0.00,1.000000,,2013-01-09 09:53:00,
2013-01-09 02:22:00,30.0,29.0,-100.00,East,83,2.0,4.0,98,0.00,,,0.00,1.000000,,2013-01-09 10:22:00,
2013-01-09 02:32:00,30.0,29.0,-100.00,East,83,2.0,4.0,98,0.00,,,0.00,1.000000,,2013-01-09 10:32:00,
2013-01-09 02:42:00,30.0,29.0,-100.00,East,83,2.0,4.0,98,0.00,,,0.00,1.000000,,2013-01-09 10:42:00,
2013-01-09 02:52:00,30.0,29.0,-100.00,East,83,2.0,4.0,98,0.00,,,0.00,1.000000,,2013-01-09 10:52:00,
2013-01-09 03:22:00,32.0,31.0,-100.00,SSE,164,2.0,6.0,95,0.00,,,0.00,1.000000,,2013-01-09 11:22:00,
2013-01-09 03:32:00,32.0,31.0,-100.00,SSE,164,2.0,6.0,95,0.00,,,0.00,1.000000,,2013-01-09 11:32:00,
2013-01-09 03:42:00,32.0,31.0,-100.00,SSE,164,2.0,6.0,95,0.00,,,0.00,1.000000,,2013-01-09 11:42:00,
2013-01-09 03:52:00,32.0,31.0,-100.00,SSE,164,2.0,6.0,95,0.00,,,0.00,1.000000,,2013-01-09 11:52:00,
2013-01-09 04:22:00,32.0,30.0,-100.00,South,178,2.0,4.0,93,0.00,,,0.00,1.000000,,2013-01-09 12:22:00,
2013-01-09 04:33:00,32.0,30.0,-100.00,South,178,2.0,4.0,93,0.00,,,0.00,1.000000,,2013-01-09 12:33:00,
2013-01-09 04:42:00,32.0,30.0,-100.00,South,178,2.0,4.0,93,0.00,,,0.00,1.000000,,2013-01-09 12:42:00,
2013-01-09 04:52:00,32.0,30.0,-100.00,South,178,2.0,4.0,93,0.00,,,0.00,1.000000,,2013-01-09 12:52:00,
2013-01-09 05:22:00,30.0,29.0,-100.00,ESE,121,2.0,7.0,97,0.00,,,0.00,1.000000,,2013-01-09 13:22:00,
2013-01-09 05:32:00,30.0,29.0,-100.00,ESE,121,2.0,7.0,97,0.00,,,0.00,1.000000,,2013-01-09 13:32:00,
2013-01-09 05:42:00,30.0,29.0,-100.00,ESE,121,2.0,7.0,97,0.00,,,0.00,1.000000,,2013-01-09 13:42:00,
2013-01-09 05:52:00,30.0,29.0,-100.00,ESE,121,2.0,7.0,97,0.00,,,0.00,1.000000,,2013-01-09 13:52:00,
2013-01-09 06:22:00,31.0,29.0,-100.00,WNW,288,5.0,9.0,92,-99.99,,,0.00,1.000000,,2013-01-09 14:22:00,
2013-01-09 06:43:00,31.0,29.0,-100.00,WNW,288,5.0,9.0,92,-99.99,,,0.00,1.000000,,2013-01-09 14:43:00,
2013-01-09 06:52:00,31.0,29.0,-100.00,WNW,288,5.0,9.0,92,-99.99,,,0.00,1.000000,,2013-01-09 14:52:00,
2013-01-09 07:22:00,38.0,31.0,-100.00,SW,217,16.0,30.0,77,-99.99,,,0.00,1.000000,,2013-01-09 15:22:00,
2013-01-09 07:33:00,38.0,31.0,-100.00,SW,217,16.0,30.0,77,-99.99,,,0.00,1.000000,,2013-01-09 15:33:00,
2013-01-09 07:42:00,38.0,31.0,-100.00,SW,217,16.0,30.0,77,-99.99,,,0.00,1.000000,,2013-01-09 15:42:00,
2013-01-09 07:52:00,38.0,31.0,-100.00,SW,217,16.0,30.0,77,-99.99,,,0.00,1.000000,,2013-01-09 15:52:00,
2013-01-09 08:22:00,38.0,31.0,-100.00,South,181,9.0,25.0,75,0.00,,,0.00,2.000000,,2013-01-09 16:22:00,
2013-01-09 08:33:00,38.0,31.0,-100.00,South,181,9.0,25.0,75,0.00,,,0.00,2.000000,,2013-01-09 16:33:00,
2013-01-09 08:42:00,38.0,31.0,-100.00,South,181,9.0,25.0,75,0.00,,,0.00,2.000000,,2013-01-09 16:42:00,
2013-01-09 08:52:00,38.0,31.0,-100.00,South,181,9.0,25.0,75,0.00,,,0.00,2.000000,,2013-01-09 16:52:00,
2013-01-09 09:22:00,36.0,32.0,-100.00,South,175,8.0,18.0,84,0.00,,,0.00,22.000000,,2013-01-09 17:22:00,
2013-01-09 09:32:00,36.0,32.0,-100.00,South,175,8.0,18.0,84,0.00,,,0.00,22.000000,,2013-01-09 17:32:00,
2013-01-09 09:43:00,36.0,32.0,-100.00,South,175,8.0,18.0,84,0.00,,,0.00,22.000000,,2013-01-09 17:43:00,
2013-01-09 09:52:00,36.0,32.0,-100.00,South,175,8.0,18.0,84,0.00,,,0.00,22.000000,,2013-01-09 17:52:00,
2013-01-09 10:23:00,37.0,32.0,-100.00,SSW,199,9.0,19.0,81,0.00,,,0.00,54.000000,,2013-01-09 18:23:00,
2013-01-09 10:33:00,37.0,32.0,-100.00,SSW,199,9.0,19.0,81,0.00,,,0.00,54.000000,,2013-01-09 18:33:00,
2013-01-09 10:43:00,37.0,32.0,-100.00,SSW,199,9.0,19.0,81,0.00,,,0.00,54.000000,,2013-01-09 18:43:00,
2013-01-09 10:52:00,37.0,32.0,-100.00,SSW,199,9.0,19.0,81,0.00,,,0.00,54.000000,,2013-01-09 18:52:00,
2013-01-09 11:22:00,39.0,30.0,-100.00,SSW,192,10.0,28.0,71,0.00,,,-99.99,112.000000,,2013-01-09 19:22:00,
2013-01-09 11:33:00,39.0,30.0,-100.00,SSW,192,10.0,28.0,71,0.00,,,-99.99,112.000000,,2013-01-09 19:33:00,
2013-01-09 11:43:00,39.0,30.0,-100.00,SSW,192,10.0,28.0,71,0.00,,,-99.99,112.000000,,2013-01-09 19:43:00,
2013-01-09 11:52:00,39.0,30.0,-100.00,SSW,192,10.0,28.0,71,0.00,,,-99.99,112.000000,,2013-01-09 19:52:00,
2013-01-09 12:22:00,34.0,31.0,-100.00,WSW,254,16.0,27.0,88,0.02,,,0.02,65.000000,,2013-01-09 20:22:00,
2013-01-09 12:33:00,34.0,31.0,-100.00,WSW,254,16.0,27.0,88,0.02,,,0.02,65.000000,,2013-01-09 20:33:00,
2013-01-09 12:42:00,34.0,31.0,-100.00,WSW,254,16.0,27.0,88,0.02,,,0.02,65.000000,,2013-01-09 20:42:00,
2013-01-09 12:52:00,34.0,31.0,-100.00,WSW,254,16.0,27.0,88,0.02,,,0.02,65.000000,,2013-01-09 20:52:00,
2013-01-09 13:22:00,33.0,28.0,-100.00,West,265,13.0,27.0,80,0.00,,,0.02,129.000000,,2013-01-09 21:22:00,
2013-01-09 13:33:00,33.0,28.0,-100.00,West,265,13.0,27.0,80,0.00,,,0.02,129.000000,,2013-01-09 21:33:00,
2013-01-09 13:42:00,33.0,28.0,-100.00,West,265,13.0,27.0,80,0.00,,,0.02,129.000000,,2013-01-09 21:42:00,
2013-01-09 13:52:00,33.0,28.0,-100.00,West,265,13.0,27.0,80,0.00,,,0.02,129.000000,,2013-01-09 21:52:00,
2013-01-09 14:22:00,32.0,25.0,-100.00,WSW,254,12.0,20.0,76,0.00,,,0.02,106.000000,,2013-01-09 22:22:00,
2013-01-09 14:33:00,32.0,25.0,-100.00,WSW,254,12.0,20.0,76,0.00,,,0.02,106.000000,,2013-01-09 22:33:00,
2013-01-09 14:42:00,32.0,25.0,-100.00,WSW,254,12.0,20.0,76,0.00,,,0.02,106.000000,,2013-01-09 22:42:00,
2013-01-09 14:52:00,32.0,25.0,-100.00,WSW,254,12.0,20.0,76,0.00,,,0.02,106.000000,,2013-01-09 22:52:00,
2013-01-09 15:22:00,30.0,27.0,-100.00,West,279,10.0,20.0,89,0.00,,,0.02,68.000000,,2013-01-09 23:22:00,
2013-01-09 15:32:00,30.0,27.0,-100.00,West,279,10.0,20.0,89,0.00,,,0.02,68.000000,,2013-01-09 23:32:00,
2013-01-09 15:42:00,30.0,27.0,-100.00,West,279,10.0,20.0,89,0.00,,,0.02,68.000000,,2013-01-09 23:42:00,
2013-01-09 15:52:00,30.0,27.0,-100.00,West,279,10.0,20.0,89,0.00,,,0.02,68.000000,,2013-01-09 23:52:00,
2013-01-09 16:22:00,28.0,26.0,-100.00,West,279,7.0,24.0,92,0.00,,,0.02,45.000000,,2013-01-10 00:22:00,
2013-01-09 16:32:00,28.0,26.0,-100.00,West,279,7.0,24.0,92,0.00,,,0.02,45.000000,,2013-01-10 00:32:00,
2013-01-09 16:42:00,28.0,26.0,-100.00,West,279,7.0,24.0,92,0.00,,,0.02,45.000000,,2013-01-10 00:42:00,
2013-01-09 16:52:00,28.0,26.0,-100.00,West,279,7.0,24.0,92,0.00,,,0.02,45.000000,,2013-01-10 00:52:00,
2013-01-09 17:22:00,27.0,23.0,-100.00,WNW,290,5.0,12.0,86,0.00,,,0.02,16.000000,,2013-01-10 01:22:00,
2013-01-09 17:32:00,27.0,23.0,-100.00,WNW,290,5.0,12.0,86,0.00,,,0.02,16.000000,,2013-01-10 01:32:00,
2013-01-09 17:42:00,27.0,23.0,-100.00,WNW,290,5.0,12.0,86,0.00,,,0.02,16.000000,,2013-01-10 01:42:00,
2013-01-09 17:52:00,27.0,23.0,-100.00,WNW,290,5.0,12.0,86,0.00,,,0.02,16.000000,,2013-01-10 01:52:00,
2013-01-09 18:22:00,27.0,21.0,-100.00,West,276,4.0,13.0,78,0.00,,,0.02,1.000000,,2013-01-10 02:22:00,
2013-01-09 18:32:00,27.0,21.0,-100.00,West,276,4.0,13.0,78,0.00,,,0.02,1.000000,,2013-01-10 02:32:00,
2013-01-09 18:42:00,27.0,21.0,-100.00,West,276,4.0,13.0,78,0.00,,,0.02,1.000000,,2013-01-10 02:42:00,
2013-01-09 18:52:00,27.0,21.0,-100.00,West,276,4.0,13.0,78,0.00,,,0.02,1.000000,,2013-01-10 02:52:00,
2013-01-09 19:22:00,26.0,21.0,-100.00,WNW,301,7.0,12.0,80,0.00,,,0.02,1.000000,,2013-01-10 03:22:00,
2013-01-09 19:32:00,26.0,21.0,-100.00,WNW,301,7.0,12.0,80,0.00,,,0.02,1.000000,,2013-01-10 03:32:00,
2013-01-09 19:42:00,26.0,21.0,-100.00,WNW,301,7.0,12.0,80,0.00,,,0.02,1.000000,,2013-01-10 03:42:00,
2013-01-09 19:52:00,26.0,21.0,-100.00,WNW,301,7.0,12.0,80,0.00,,,0.02,1.000000,,2013-01-10 03:52:00,
2013-01-09 20:22:00,25.0,18.0,-100.00,WNW,283,10.0,16.0,73,0.00,,,0.02,1.000000,,2013-01-10 04:22:00,
2013-01-09 20:32:00,25.0,18.0,-100.00,WNW,283,10.0,16.0,73,0.00,,,0.02,1.000000,,2013-01-10 04:32:00,
2013-01-09 20:42:00,25.0,18.0,-100.00,WNW,283,10.0,16.0,73,0.00,,,0.02,1.000000,,2013-01-10 04:42:00,
2013-01-09 20:52:00,25.0,18.0,-100.00,WNW,283,10.0,16.0,73,0.00,,,0.02,1.000000,,2013-01-10 04:52:00,
2013-01-09 21:22:00,24.0,16.0,-100.00,West,273,6.0,15.0,72,0.00,,,0.02,1.000000,,2013-01-10 05:22:00,
2013-01-09 21:33:00,24.0,16.0,-100.00,West,273,6.0,15.0,72,0.00,,,0.02,1.000000,,2013-01-10 05:33:00,
2013-01-09 21:42:00,24.0,16.0,-100.00,West,273,6.0,15.0,72,0.00,,,0.02,1.000000,,2013-01-10 05:42:00,
2013-01-09 21:52:00,24.0,16.0,-100.00,West,273,6.0,15.0,72,0.00,,,0.02,1.000000,,2013-01-10 05:52:00,
2013-01-09 22:22:00,23.0,17.0,-100.00,West,263,9.0,15.0,79,0.00,,,0.02,1.000000,,2013-01-10 06:22:00,
2013-01-09 22:32:00,23.0,17.0,-100.00,West,263,9.0,15.0,79,0.00,,,0.02,1.000000,,2013-01-10 06:32:00,
2013-01-09 22:42:00,23.0,17.0,-100.00,West,263,9.0,15.0,79,0.00,,,0.02,1.000000,,2013-01-10 06:42:00,
2013-01-09 22:52:00,23.0,17.0,-100.00,West,263,9.0,15.0,79,0.00,,,0.02,1.000000,,2013-01-10 06:52:00,
2013-01-09 23:22:00,22.0,16.0,-100.00,West,272,4.0,13.0,76,0.00,,,0.02,1.000000,,2013-01-10 07:22:00,
2013-01-09 23:32:00,22.0,16.0,-100.00,West,272,4.0,13.0,76,0.00,,,0.02,1.000000,,2013-01-10 07:32:00,
2013-01-09 23:42:00,22.0,16.0,-100.00,West,272,4.0,13.0,76,0.00,,,0.02,1.000000,,2013-01-10 07:42:00,
2013-01-09 23:52:00,22.0,16.0,-100.00,West,272,4.0,13.0,76,0.00,,,0.02,1.000000,,2013-01-10 07:52:00,